»·PEaware :: AAL74 KBFI-KPDX

AAL74 :: KBFI-KPDX

FLIGHT INFORMATION

Flight Status: Arrived
Operator:
American Airlines
More flights by this operator :: More flights under this callsign
Pilot: Mounir D. (11581)
Aircraft: MCDONNELL-DOUGLAS MD-82
(MD82)
More flights by this aircraft type
Origin: KBFI Boeing Field/King Co Intl
United States
Destination: KPDX Portland Intl
United States
More flights between these airports :: More routes between these airports
Route: +NRVNA1 NRVNA BUWZO KRATR2
File this flight plan on PilotEdge
Remarks:
Altitude:
(Current/Filed)
18,000ft
Speed:
(Current/Filed)
350kts
Departed: 02-Aug-18 07:27 AM
Arrived: 02-Aug-18 08:00 AM
Distance/Time
Traveled:
117nm/0:33
Distance/Time
To Go:
Arrived

Flight Plot

Page will automatically refresh every two minutes.

Flight plan parsing failed; only flown route is shown


Map Options




Map Legend


Flown Route
Filed Route
Departure Airport
Arrival Airport
Navaid (VOR, NDB)
Fix

Horizontal Profiles

Position Reports

Time Latitude Longitude Heading Altitude Ground
Speed
02-Aug-18 06:48 47.535391 -122.311557 59 27ft 0kts
02-Aug-18 06:49 47.535391 -122.311557 59 27ft 0kts
02-Aug-18 06:50 47.535391 -122.311557 59 27ft 0kts
02-Aug-18 06:51 47.535391 -122.311557 59 27ft 0kts
02-Aug-18 06:52 47.535391 -122.311557 59 27ft 0kts
02-Aug-18 06:53 47.535391 -122.311557 59 27ft 0kts
02-Aug-18 06:54 47.535391 -122.311557 59 27ft 0kts
02-Aug-18 06:55 47.535391 -122.311557 59 27ft 0kts
02-Aug-18 06:56 47.535391 -122.311557 59 27ft 0kts
02-Aug-18 07:04 47.535391 -122.311557 59 27ft 0kts
02-Aug-18 07:05 47.535391 -122.311557 59 27ft 0kts
02-Aug-18 07:06 47.535391 -122.311557 59 27ft 0kts
02-Aug-18 07:07 47.535391 -122.311557 59 27ft 0kts
02-Aug-18 07:08 47.535391 -122.311557 59 27ft 0kts
02-Aug-18 07:09 47.535391 -122.311557 59 27ft 0kts
02-Aug-18 07:10 47.535391 -122.311557 59 27ft 0kts
02-Aug-18 07:11 47.535391 -122.311557 59 27ft 0kts
02-Aug-18 07:12 47.535391 -122.311557 59 27ft 0kts
02-Aug-18 07:13 47.535391 -122.311557 59 27ft 0kts
02-Aug-18 07:14 47.535391 -122.311557 59 27ft 0kts
02-Aug-18 07:15 47.535391 -122.311557 59 27ft 0kts
02-Aug-18 07:16 47.535391 -122.311557 59 27ft 0kts
02-Aug-18 07:17 47.535391 -122.311556 59 27ft 0kts
02-Aug-18 07:18 47.535393 -122.311552 59 27ft 0kts
02-Aug-18 07:19 47.535394 -122.311548 59 27ft 0kts
02-Aug-18 07:20 47.535396 -122.311544 59 27ft 0kts
02-Aug-18 07:21 47.535397 -122.311540 59 27ft 0kts
02-Aug-18 07:22 47.535399 -122.311536 59 27ft 0kts
02-Aug-18 07:23 47.535463 -122.311427 44 27ft 3kts
02-Aug-18 07:24 47.538563 -122.313738 332 27ft 8kts
02-Aug-18 07:25 47.539661 -122.312701 58 27ft 0kts
02-Aug-18 07:26 47.539691 -122.312628 58 27ft 4kts
02-Aug-18 07:27 47.539414 -122.310481 146 27ft 6kts
02-Aug-18 07:28 47.512935 -122.287095 148 1837ft 141kts
02-Aug-18 07:29 47.459646 -122.247874 157 2122ft 217kts
02-Aug-18 07:30 47.403138 -122.201632 150 2433ft 220kts
02-Aug-18 07:31 47.350114 -122.156107 150 4196ft 278kts
02-Aug-18 07:32 47.284040 -122.120772 178 5615ft 207kts
02-Aug-18 07:33 47.217433 -122.128096 186 7219ft 285kts
02-Aug-18 07:34 47.143054 -122.144007 196 9678ft 245kts
02-Aug-18 07:35 47.083720 -122.179249 216 12492ft 241kts
02-Aug-18 07:36 47.024352 -122.240224 217 15012ft 293kts
02-Aug-18 07:37 46.948975 -122.315894 208 17018ft 355kts
02-Aug-18 07:38 46.844262 -122.326463 179 18026ft 409kts
02-Aug-18 07:39 46.736922 -122.314700 181 18000ft 354kts
02-Aug-18 07:40 46.638630 -122.310963 183 17997ft 353kts
02-Aug-18 07:41 46.540503 -122.311013 184 17999ft 351kts
02-Aug-18 07:42 46.442673 -122.309975 184 18001ft 351kts
02-Aug-18 07:43 46.344859 -122.309818 184 18007ft 351kts
02-Aug-18 07:44 46.247319 -122.311692 192 18130ft 347kts
02-Aug-18 07:45 46.174481 -122.348746 206 15990ft 336kts
02-Aug-18 07:46 46.089093 -122.402532 204 12864ft 332kts
02-Aug-18 07:47 45.990903 -122.457435 203 10248ft 299kts
02-Aug-18 07:48 45.929139 -122.489726 198 8582ft 294kts
02-Aug-18 07:49 45.849043 -122.470522 165 6589ft 286kts
02-Aug-18 07:50 45.768234 -122.438690 167 6020ft 262kts
02-Aug-18 07:51 45.705289 -122.416622 168 6004ft 287kts
02-Aug-18 07:52 45.634255 -122.392965 169 6020ft 250kts
02-Aug-18 07:53 45.577816 -122.314599 120 5999ft 241kts
02-Aug-18 07:54 45.545449 -122.248794 151 6001ft 246kts
02-Aug-18 07:55 45.486719 -122.265462 229 5115ft 215kts
02-Aug-18 07:56 45.487479 -122.346732 313 4178ft 219kts
02-Aug-18 07:57 45.522701 -122.405101 291 3239ft 180kts
02-Aug-18 07:58 45.543638 -122.467894 298 1686ft 158kts
02-Aug-18 07:59 45.565435 -122.520502 298 636ft 139kts
02-Aug-18 08:00 45.583737 -122.567086 298 87ft 130kts
02-Aug-18 08:01 45.590158 -122.585600 280 27ft 0kts
02-Aug-18 08:02 45.590174 -122.589579 244 27ft 11kts
02-Aug-18 08:03 45.589972 -122.590821 214 27ft 0kts
02-Aug-18 08:04 45.589970 -122.590823 214 27ft 0kts
02-Aug-18 08:05 45.589970 -122.590823 214 27ft 0kts

Navigation Log

Ident Type
Flight plan parsing failed, navigation log unavailable